Weather at John C. Munro Hamilton International Airport

Public forecast

Using degrees Celsius for public forecast. Weather courtesy of forecast.io.

Current aviation weather report (METAR) for John C. Munro Hamilton International Airport

Report is more than 6 hours old.

2022/11/14 15:00 (retrieved 2 years ago)

CYHM 141500Z 00000KT 15SM FEW025 BKN055 BKN120 BKN210 01/M02 A3036 RMK CU1SC4AC1CI1 AC TR SLP295

Aviation forecast (TAF) for John C. Munro Hamilton International Airport

Forecast is more than 12 hours old.

2023/02/22 18:42 (retrieved 1 year ago)

TAF TAF CYHM 221740Z 2218/2318 06015G25KT P6SM -SHSN SCT015 BKN025 OVC060 TEMPO 2218/2222 1 1/2SM -SHSN BKN015 OVC025 BECMG 2220/2222 06020G30KT FM222200 06020G30KT 1/4SM +SN BLSN VV004 TEMPO 2222/2224 1/2SM SNPL VV006 FM230000 06020G30KT 3/4SM -PLSN BLSN VV008 PROB40 2300/2303 2SM -FZRA BR OVC010 FM230300 06025G35KT 1 1/2SM -FZRA BR BKN004 OVC006 PROB30 2303/2306 2SM FZRA BR FM231000 04015G25KT 1 1/2SM -FZDZ BR BKN004 OVC008 PROB30 2310/2316 3SM -PL BR SCT004 OVC008 FM231600 06012KT 2SM -FZDZ BR SCT004 OVC006 PROB30 2316/2318 6SM -FZRA BR OVC008 RMK NXT FCST BY 230000Z